createdAt,value
2022-10-29T00:01:34.366Z,10.49
2022-10-29T00:11:40.265Z,10.34
2022-10-29T00:21:46.041Z,10.17
2022-10-29T00:31:53.501Z,10.01
2022-10-29T00:41:59.235Z,9.87
2022-10-29T00:52:06.344Z,9.69
2022-10-29T01:02:12.219Z,9.46
2022-10-29T01:12:41.581Z,9.42
2022-10-29T01:22:54.661Z,9.51
2022-10-29T01:33:10.724Z,9.48
2022-10-29T01:53:32.608Z,9.64
2022-10-29T02:03:50.120Z,9.74
2022-10-29T02:14:03.320Z,9.75
2022-10-29T02:24:10.379Z,9.80
2022-10-29T02:34:16.270Z,9.94
2022-10-29T02:44:22.131Z,10.02
2022-10-29T02:54:28.072Z,10.13
2022-10-29T03:04:33.684Z,10.20
2022-10-29T03:14:39.295Z,10.30
2022-10-29T03:24:44.903Z,10.31
2022-10-29T03:34:52.642Z,10.28
2022-10-29T03:45:00.276Z,10.35
2022-10-29T03:55:07.337Z,10.54
2022-10-29T04:05:13.118Z,10.68
2022-10-29T04:15:19.148Z,10.75
2022-10-29T04:35:55.546Z,10.68
2022-10-29T04:46:01.725Z,10.57
2022-10-29T04:56:08.198Z,10.47
2022-10-29T05:06:13.995Z,10.37
2022-10-29T05:16:19.704Z,10.44
2022-10-29T05:26:25.594Z,10.58
2022-10-29T05:36:31.367Z,10.54
2022-10-29T05:46:37.028Z,10.39
2022-10-29T05:56:42.635Z,10.42
2022-10-29T06:06:48.788Z,10.58
2022-10-29T06:16:54.531Z,10.78
2022-10-29T06:27:00.107Z,11.14
2022-10-29T06:37:05.797Z,11.97
2022-10-29T06:47:11.463Z,13.02
2022-10-29T06:57:17.129Z,14.65
2022-10-29T07:17:33.587Z,18.79
2022-10-29T07:27:39.329Z,20.99
2022-10-29T07:37:45.029Z,22.81
2022-10-29T07:48:02.700Z,23.95
2022-10-29T07:58:12.167Z,23.21
2022-10-29T08:08:18.706Z,21.87
2022-10-29T08:18:24.434Z,22.49
2022-10-29T08:28:33.188Z,22.06
2022-10-29T08:38:41.443Z,22.62
2022-10-29T08:48:53.714Z,23.17
2022-10-29T08:59:04.527Z,23.33
2022-10-29T09:09:31.332Z,22.51
2022-10-29T09:20:00.369Z,21.72
2022-10-29T09:30:10.675Z,21.02
2022-10-29T09:40:25.608Z,20.76
2022-10-29T09:50:37.002Z,19.86
2022-10-29T10:00:43.006Z,19.36
2022-10-29T10:10:57.189Z,19.07
2022-10-29T10:21:09.562Z,18.93
2022-10-29T10:31:17.662Z,18.61
2022-10-29T10:41:29.620Z,18.53
2022-10-29T10:51:37.881Z,18.39
2022-10-29T11:01:48.613Z,18.35
2022-10-29T11:12:01.583Z,18.37
2022-10-29T11:22:15.049Z,18.40
2022-10-29T11:32:25.218Z,18.52
2022-10-29T11:42:31.450Z,18.58
2022-10-29T11:52:45.793Z,18.77
2022-10-29T12:03:10.681Z,18.77
2022-10-29T12:13:25.332Z,18.75
2022-10-29T12:23:50.542Z,18.70
2022-10-29T12:34:04.536Z,18.44
2022-10-29T12:44:20.585Z,18.31
2022-10-29T12:54:37.979Z,18.25
2022-10-29T13:05:17.285Z,18.20
2022-10-29T13:15:24.376Z,18.08
2022-10-29T13:25:53.528Z,17.91
2022-10-29T13:36:01.060Z,17.72
2022-10-29T13:46:24.900Z,17.45
2022-10-29T13:56:35.933Z,17.29
2022-10-29T14:06:42.652Z,17.07
2022-10-29T14:16:48.468Z,16.95
2022-10-29T14:27:08.754Z,16.73
2022-10-29T14:37:19.411Z,16.44
2022-10-29T14:47:32.281Z,16.21
2022-10-29T14:57:47.035Z,15.95
2022-10-29T15:07:52.928Z,15.69
2022-10-29T15:18:03.184Z,15.45
2022-10-29T15:28:13.349Z,15.26
2022-10-29T15:39:08.889Z,15.09
2022-10-29T15:49:18.563Z,14.88
2022-10-29T15:59:26.965Z,14.69
2022-10-29T16:09:32.789Z,14.55
2022-10-29T16:19:38.412Z,14.42
2022-10-29T16:29:44.394Z,14.23
2022-10-29T16:39:50.006Z,14.03
2022-10-29T16:49:55.845Z,13.83
2022-10-29T17:00:01.628Z,13.66
2022-10-29T17:10:08.699Z,13.57
2022-10-29T17:20:14.575Z,13.55
2022-10-29T17:30:20.561Z,13.48
2022-10-29T17:40:26.309Z,13.37
2022-10-29T17:50:32.039Z,13.25
2022-10-29T18:00:37.709Z,13.15
2022-10-29T18:10:43.319Z,12.98
2022-10-29T18:20:49.410Z,12.82
2022-10-29T18:30:55.427Z,12.69
2022-10-29T18:41:01.638Z,12.57
2022-10-29T18:51:09.955Z,12.41
2022-10-29T19:01:19.026Z,12.33
2022-10-29T19:11:27.552Z,12.25
2022-10-29T19:21:34.925Z,12.21
2022-10-29T19:31:41.308Z,12.20
2022-10-29T19:41:46.989Z,12.19
2022-10-29T19:51:53.328Z,12.30
2022-10-29T20:01:59.336Z,12.47
2022-10-29T20:12:05.617Z,12.62
2022-10-29T20:22:11.283Z,12.75
2022-10-29T20:32:17.099Z,12.81
2022-10-29T20:42:24.257Z,12.84
2022-10-29T20:52:30.522Z,12.76
2022-10-29T21:02:36.271Z,12.55
2022-10-29T21:12:45.060Z,12.40
2022-10-29T21:22:50.782Z,12.36
2022-10-29T21:32:57.525Z,12.40
2022-10-29T21:43:03.242Z,12.49
2022-10-29T21:53:10.267Z,12.46
2022-10-29T22:03:15.877Z,12.41
2022-10-29T22:13:21.503Z,12.40
2022-10-29T22:23:27.129Z,12.36
2022-10-29T22:33:33.999Z,12.31
2022-10-29T22:43:40.210Z,12.27
2022-10-29T22:53:47.311Z,12.26
2022-10-29T23:03:53.693Z,12.15
2022-10-29T23:14:01.068Z,12.10
2022-10-29T23:24:07.988Z,12.07
2022-10-29T23:34:15.113Z,12.09
2022-10-29T23:44:20.830Z,12.12
2022-10-29T23:54:26.831Z,12.12
